Time;durP1;ratioP1;P1;durP2;ratioP2;P2;SDS_P1;SDS_P2;PMS_P1;PMS_P2;Temp;Humidity;BMP_temperature;BMP_pressure;BME280_temperature;BME280_humidity;BME280_pressure;Samples;Min_cycle;Max_cycle;Signal;HPM_P1;HPM_P2
2022/06/27 00:01:10;;;;;;;1.83;1.48;;;20.90;93.10;;;;;;5004744;28;20041;-39
2022/06/27 00:03:36;;;;;;;1.85;1.27;;;20.90;92.80;;;;;;5005680;28;20056;-39
2022/06/27 00:06:02;;;;;;;1.50;1.40;;;21.10;92.10;;;;;;5009069;28;20225;-35
2022/06/27 00:08:27;;;;;;;1.42;1.33;;;21.10;92.60;;;;;;5008907;28;20116;-37
2022/06/27 00:10:53;;;;;;;2.10;1.15;;;20.90;93.10;;;;;;5007078;28;20029;-38
2022/06/27 00:13:19;;;;;;;1.40;1.30;;;20.90;93.90;;;;;;5011726;28;20022;-39
2022/06/27 00:15:44;;;;;;;1.27;1.25;;;20.90;93.00;;;;;;5008604;28;20149;-37
2022/06/27 00:18:10;;;;;;;1.50;1.40;;;21.00;92.70;;;;;;5004105;28;20564;-39
2022/06/27 00:20:36;;;;;;;1.63;1.30;;;21.00;93.10;;;;;;5004472;28;20050;-38
2022/06/27 00:23:02;;;;;;;2.53;1.48;;;20.80;93.70;;;;;;5005742;28;20113;-38
2022/06/27 00:25:27;;;;;;;1.58;1.42;;;20.70;94.00;;;;;;5008993;28;20038;-38
2022/06/27 00:27:53;;;;;;;2.03;1.27;;;20.80;93.90;;;;;;5006523;28;20423;-38
2022/06/27 00:30:20;;;;;;;1.58;1.48;;;20.70;94.50;;;;;;5007349;28;20084;-37
2022/06/27 00:32:48;;;;;;;1.33;1.33;;;20.70;94.30;;;;;;5007592;28;20037;-39
2022/06/27 00:35:13;;;;;;;1.52;1.42;;;20.60;94.90;;;;;;5008067;28;20088;-38
2022/06/27 00:37:39;;;;;;;1.40;1.30;;;20.70;94.10;;;;;;5005038;28;20029;-39
2022/06/27 00:40:06;;;;;;;1.48;1.10;;;20.70;94.80;;;;;;5007244;28;20033;-39
2022/06/27 00:42:32;;;;;;;4.40;1.50;;;20.70;95.30;;;;;;5004719;28;20452;-39
2022/06/27 00:44:58;;;;;;;1.80;1.42;;;20.50;96.30;;;;;;5007346;28;20034;-40
2022/06/27 00:47:23;;;;;;;1.85;1.38;;;20.50;96.20;;;;;;5003127;28;20403;-36
2022/06/27 00:49:49;;;;;;;2.88;1.80;;;20.40;96.20;;;;;;5005964;28;20201;-38
2022/06/27 00:52:15;;;;;;;1.70;1.60;;;20.50;96.20;;;;;;5007973;28;20064;-40
2022/06/27 00:54:43;;;;;;;2.58;1.33;;;20.40;97.00;;;;;;5006637;28;20030;-40
2022/06/27 00:57:12;;;;;;;2.78;1.45;;;20.30;97.40;;;;;;5007953;28;20056;-39
2022/06/27 00:59:37;;;;;;;1.20;1.20;;;20.30;96.80;;;;;;5010055;28;20113;-39
2022/06/27 01:02:04;;;;;;;1.40;1.30;;;20.40;96.90;;;;;;5008014;28;20085;-40
2022/06/27 01:04:31;;;;;;;1.23;1.23;;;20.40;96.70;;;;;;5014793;28;20026;-40
2022/06/27 01:06:57;;;;;;;1.50;1.40;;;20.40;97.10;;;;;;5014650;28;20046;-38
2022/06/27 01:09:24;;;;;;;1.48;1.42;;;20.40;97.50;;;;;;5012491;28;20022;-36
2022/06/27 01:11:50;;;;;;;1.50;1.40;;;20.40;97.80;;;;;;5007775;28;20030;-37
2022/06/27 01:14:17;;;;;;;1.52;1.42;;;20.40;97.40;;;;;;5015170;28;20549;-38
2022/06/27 01:16:43;;;;;;;1.97;1.77;;;20.50;97.00;;;;;;5013931;28;20034;-38
2022/06/27 01:19:12;;;;;;;1.60;1.42;;;20.40;97.20;;;;;;5011760;28;20291;-37
2022/06/27 01:21:58;;;;;;;2.03;1.55;;;20.10;99.40;;;;;;5010350;28;20629;-40
2022/06/27 01:24:26;;;;;;;1.60;1.50;;;19.90;99.90;;;;;;5012923;28;20049;-40
2022/06/27 01:26:51;;;;;;;;;;;20.00;99.80;;;;;;5012796;28;20487;-38
2022/06/27 01:29:19;;;;;;;2.33;1.60;;;20.10;99.90;;;;;;5013836;28;19995;-36
2022/06/27 01:31:45;;;;;;;1.97;1.57;;;20.00;99.90;;;;;;5010468;28;20037;-36
2022/06/27 01:34:13;;;;;;;2.25;1.63;;;20.00;99.90;;;;;;5008149;28;20037;-39
2022/06/27 01:36:41;;;;;;;5.18;2.25;;;19.20;99.90;;;;;;5008051;28;20033;-37
2022/06/27 01:39:09;;;;;;;2.13;1.38;;;19.50;99.90;;;;;;5007033;28;20038;-40
2022/06/27 01:41:35;;;;;;;4.57;1.58;;;19.90;98.40;;;;;;5006767;28;20053;-40
2022/06/27 01:44:02;;;;;;;1.50;1.40;;;20.10;97.90;;;;;;5006347;28;20057;-40
2022/06/27 01:46:38;;;;;;;1.40;1.30;;;20.20;98.10;;;;;;5009336;28;20038;-39
2022/06/27 01:49:03;;;;;;;1.90;1.40;;;20.30;97.80;;;;;;5000010;28;20117;-36
2022/06/27 01:51:29;;;;;;;1.23;1.23;;;20.30;96.80;;;;;;5006881;28;20587;-38
2022/06/27 01:53:55;;;;;;;2.30;1.50;;;20.40;97.30;;;;;;5006165;28;20068;-39
2022/06/27 01:56:21;;;;;;;2.83;1.58;;;20.40;98.00;;;;;;5007037;28;20026;-40
2022/06/27 01:58:46;;;;;;;1.60;1.50;;;20.40;98.90;;;;;;5008714;28;20438;-40
2022/06/27 02:01:13;;;;;;;1.80;1.70;;;20.40;99.00;;;;;;5006730;28;20125;-40
2022/06/27 02:03:39;;;;;;;2.05;1.92;;;20.40;99.90;;;;;;5006317;28;20033;-40
2022/06/27 02:06:05;;;;;;;2.55;2.28;;;20.40;99.90;;;;;;5006401;28;20405;-40
2022/06/27 02:08:32;;;;;;;2.38;2.20;;;20.30;99.90;;;;;;5006200;28;20034;-39
2022/06/27 02:10:57;;;;;;;2.10;2.00;;;20.20;99.90;;;;;;5008615;28;20034;-40
2022/06/27 02:13:23;;;;;;;4.65;2.22;;;20.20;99.90;;;;;;5005345;28;20030;-36
2022/06/27 02:16:08;;;;;;;2.30;2.10;;;20.20;99.90;;;;;;5008618;28;20649;-39
2022/06/27 02:18:34;;;;;;;3.20;2.15;;;20.20;99.90;;;;;;4997630;28;20021;-38
2022/06/27 02:21:00;;;;;;;2.40;2.20;;;20.10;99.90;;;;;;5006521;28;20076;-37
2022/06/27 02:23:26;;;;;;;2.42;2.20;;;20.10;99.90;;;;;;5006833;28;20462;-40
2022/06/27 02:25:53;;;;;;;4.35;2.40;;;20.00;99.90;;;;;;5007696;28;20408;-37
2022/06/27 02:28:19;;;;;;;2.70;2.50;;;20.00;99.90;;;;;;5004863;28;20959;-37
2022/06/27 02:30:46;;;;;;;3.40;2.40;;;20.00;99.90;;;;;;5003237;28;20136;-40
2022/06/27 02:33:11;;;;;;;4.57;2.28;;;19.80;99.90;;;;;;5005236;28;20022;-37
2022/06/27 02:35:39;;;;;;;2.75;2.55;;;19.80;99.90;;;;;;5009543;28;20056;-39
2022/06/27 02:38:09;;;;;;;2.10;2.00;;;19.80;99.90;;;;;;5009876;28;20030;-40
2022/06/27 02:40:36;;;;;;;2.60;2.35;;;19.60;99.90;;;;;;5004759;28;20042;-36
2022/06/27 02:43:02;;;;;;;2.78;2.35;;;19.60;99.90;;;;;;5006743;28;20033;-37
2022/06/27 02:45:32;;;;;;;3.28;2.33;;;19.50;99.90;;;;;;5002321;28;20133;-39
2022/06/27 02:47:58;;;;;;;2.15;1.90;;;19.50;99.90;;;;;;5006707;28;20022;-39
2022/06/27 02:50:26;;;;;;;2.15;1.92;;;19.50;99.90;;;;;;5005855;28;20033;-39
2022/06/27 02:52:55;;;;;;;2.47;2.15;;;19.50;99.90;;;;;;5006954;28;20026;-37
2022/06/27 02:55:27;;;;;;;2.55;2.08;;;19.40;99.90;;;;;;5005455;28;20022;-39
2022/06/27 02:58:02;;;;;;;2.08;1.98;;;19.30;99.90;;;;;;5005957;28;20030;-39
2022/06/27 03:00:28;;;;;;;2.00;1.90;;;19.20;99.90;;;;;;5003268;28;20535;-38
2022/06/27 03:02:56;;;;;;;2.55;2.10;;;19.30;99.90;;;;;;5005075;28;20023;-34
2022/06/27 03:05:22;;;;;;;1.95;1.58;;;19.40;99.90;;;;;;5006686;28;20036;-37
2022/06/27 03:07:47;;;;;;;1.65;1.55;;;19.50;99.90;;;;;;5008331;28;20462;-37
2022/06/27 03:10:14;;;;;;;1.60;1.50;;;19.60;99.90;;;;;;5005759;28;20030;-35
2022/06/27 03:12:40;;;;;;;2.05;1.35;;;19.60;99.90;;;;;;5006033;28;20509;-35
2022/06/27 03:15:06;;;;;;;2.33;1.30;;;19.60;99.90;;;;;;5005088;28;20030;-36
2022/06/27 03:17:32;;;;;;;1.38;1.27;;;19.60;99.90;;;;;;5004949;28;20048;-36
2022/06/27 03:19:58;;;;;;;1.50;1.40;;;19.50;99.90;;;;;;5005312;28;20053;-37
2022/06/27 03:22:24;;;;;;;1.30;1.20;;;19.60;99.90;;;;;;5005852;28;20068;-38
2022/06/27 03:24:49;;;;;;;1.40;1.30;;;19.50;99.90;;;;;;5007797;28;20525;-37
2022/06/27 03:27:15;;;;;;;1.80;1.42;;;19.60;99.90;;;;;;5009127;28;20025;-38
2022/06/27 03:29:41;;;;;;;1.63;1.50;;;19.60;99.90;;;;;;5006628;28;20039;-39
2022/06/27 03:32:07;;;;;;;1.52;1.40;;;19.50;99.90;;;;;;5007907;28;20454;-39
2022/06/27 03:34:33;;;;;;;1.20;1.05;;;19.60;99.90;;;;;;5009945;28;20030;-36
2022/06/27 03:36:58;;;;;;;1.60;1.50;;;19.60;99.90;;;;;;5011427;28;20059;-40
2022/06/27 03:39:24;;;;;;;2.53;1.35;;;19.40;99.90;;;;;;5008329;28;20891;-39
2022/06/27 03:41:50;;;;;;;1.80;1.50;;;19.20;99.90;;;;;;5008901;28;20036;-40
2022/06/27 03:44:17;;;;;;;1.83;1.52;;;19.10;99.90;;;;;;5007088;28;20034;-39
2022/06/27 03:46:42;;;;;;;1.63;1.52;;;18.90;99.90;;;;;;5011170;28;20084;-39
2022/06/27 03:51:54;;;;;;;4.40;1.60;;;18.90;99.90;;;;;;5008759;28;20084;-38
2022/06/27 03:54:19;;;;;;;1.55;1.45;;;19.00;99.90;;;;;;5008425;28;20038;-38
2022/06/27 03:56:45;;;;;;;2.05;1.60;;;18.70;99.90;;;;;;5012191;28;20694;-37
2022/06/27 03:59:11;;;;;;;1.50;1.45;;;18.90;99.90;;;;;;5008581;28;20065;-37
2022/06/27 04:01:36;;;;;;;1.90;1.60;;;19.00;99.90;;;;;;5021648;28;20045;-39
2022/06/27 04:04:03;;;;;;;1.88;1.77;;;18.70;99.90;;;;;;5009211;28;20112;-36
2022/06/27 04:06:28;;;;;;;1.83;1.73;;;18.50;99.90;;;;;;5009929;28;20533;-39
2022/06/27 04:08:54;;;;;;;1.58;1.48;;;18.30;99.90;;;;;;5010896;28;20026;-36
2022/06/27 04:11:20;;;;;;;1.20;1.20;;;18.50;99.90;;;;;;5008724;28;20026;-39
2022/06/27 04:13:45;;;;;;;1.60;1.50;;;18.70;99.90;;;;;;5008037;28;20045;-39
2022/06/27 04:16:11;;;;;;;1.70;1.60;;;18.80;99.90;;;;;;5005226;28;20026;-39
2022/06/27 04:18:37;;;;;;;1.70;1.60;;;19.00;99.90;;;;;;5008183;28;20656;-37
2022/06/27 04:21:02;;;;;;;2.72;1.77;;;18.90;99.90;;;;;;5009711;28;20088;-36
2022/06/27 04:23:28;;;;;;;1.42;1.42;;;18.90;99.90;;;;;;5008289;28;20033;-39
2022/06/27 04:25:54;;;;;;;1.42;1.33;;;19.10;99.90;;;;;;5009417;28;20026;-39
2022/06/27 04:28:19;;;;;;;1.50;1.40;;;19.20;99.90;;;;;;5013276;28;20080;-38
2022/06/27 04:30:46;;;;;;;2.58;1.50;;;19.30;99.90;;;;;;5009326;28;20050;-40
2022/06/27 04:33:13;;;;;;;3.90;1.55;;;19.10;99.90;;;;;;5011154;28;20037;-38
2022/06/27 04:35:41;;;;;;;1.50;1.38;;;19.30;99.90;;;;;;5009039;28;20030;-39
2022/06/27 04:38:07;;;;;;;1.90;1.50;;;19.40;99.90;;;;;;5008558;28;20036;-36
2022/06/27 04:40:33;;;;;;;1.50;1.40;;;19.50;99.90;;;;;;5012606;28;20104;-37
2022/06/27 04:42:59;;;;;;;4.13;1.40;;;19.50;99.90;;;;;;5011168;28;20395;-39
2022/06/27 04:45:25;;;;;;;1.83;1.73;;;19.60;99.90;;;;;;5012741;28;20029;-38
2022/06/27 04:47:51;;;;;;;1.58;1.45;;;19.60;99.90;;;;;;5011249;28;20022;-38
2022/06/27 04:50:18;;;;;;;1.52;1.42;;;19.40;99.90;;;;;;5010268;28;20468;-39
2022/06/27 04:52:45;;;;;;;3.15;1.30;;;19.40;99.90;;;;;;5010065;28;20026;-39
2022/06/27 04:55:12;;;;;;;2.10;1.38;;;19.40;99.90;;;;;;5005627;28;20084;-38
2022/06/27 04:57:40;;;;;;;1.30;1.20;;;19.30;99.90;;;;;;5012564;28;20029;-37
2022/06/27 05:00:08;;;;;;;2.85;1.40;;;19.50;99.90;;;;;;5012039;28;20490;-38
2022/06/27 05:02:34;;;;;;;1.70;1.60;;;19.60;99.90;;;;;;5009627;28;20057;-38
2022/06/27 05:05:00;;;;;;;1.58;1.48;;;19.70;99.90;;;;;;5006196;28;20061;-39
2022/06/27 05:07:25;;;;;;;2.92;1.40;;;19.60;99.90;;;;;;5008885;28;20477;-40
2022/06/27 05:09:52;;;;;;;1.40;1.30;;;19.70;99.90;;;;;;5007302;28;20033;-36
2022/06/27 05:12:19;;;;;;;1.83;1.15;;;19.80;99.90;;;;;;5002654;28;20034;-37
2022/06/27 05:14:45;;;;;;;1.60;1.50;;;20.10;99.90;;;;;;5010682;28;20030;-36
2022/06/27 05:17:11;;;;;;;2.05;1.63;;;20.20;99.90;;;;;;5011165;28;20030;-36
2022/06/27 05:19:37;;;;;;;1.65;1.33;;;20.10;99.90;;;;;;5011868;28;20045;-39
2022/06/27 05:22:02;;;;;;;2.95;1.40;;;20.30;99.90;;;;;;5009709;28;20029;-39
2022/06/27 05:24:28;;;;;;;2.42;1.30;;;20.30;99.90;;;;;;5010819;28;20025;-39
2022/06/27 05:26:54;;;;;;;3.28;1.52;;;20.30;99.90;;;;;;5009980;28;20037;-39
2022/06/27 05:29:20;;;;;;;1.98;1.60;;;20.40;99.90;;;;;;5007405;28;20041;-38
2022/06/27 05:31:46;;;;;;;1.38;1.30;;;20.50;99.90;;;;;;5008832;28;20774;-37
2022/06/27 05:34:12;;;;;;;1.40;1.30;;;20.70;99.90;;;;;;5012612;28;20026;-37
2022/06/27 05:36:38;;;;;;;1.98;1.63;;;20.90;99.90;;;;;;5014759;28;20030;-39
2022/06/27 05:39:05;;;;;;;1.60;1.30;;;20.80;99.90;;;;;;5011962;28;20042;-35
2022/06/27 05:41:31;;;;;;;3.50;1.37;;;21.00;99.90;;;;;;5013777;28;20033;-35
2022/06/27 05:43:57;;;;;;;1.30;1.30;;;21.10;99.90;;;;;;5014888;28;20415;-37
2022/06/27 05:46:23;;;;;;;1.08;1.08;;;21.00;99.90;;;;;;5015034;28;20518;-39
2022/06/27 05:48:50;;;;;;;1.73;1.35;;;21.20;99.90;;;;;;5012035;28;20080;-38
2022/06/27 05:51:16;;;;;;;1.10;1.10;;;21.20;99.90;;;;;;5012347;28;20598;-39
2022/06/27 05:53:43;;;;;;;2.13;1.30;;;21.20;99.90;;;;;;5016004;28;20038;-37
2022/06/27 05:56:10;;;;;;;1.63;1.38;;;21.10;99.90;;;;;;5016002;28;20025;-37
2022/06/27 05:58:37;;;;;;;1.67;1.50;;;21.20;99.90;;;;;;5014155;28;20292;-38
2022/06/27 06:01:04;;;;;;;1.40;1.30;;;21.30;99.90;;;;;;5007277;28;20418;-39
2022/06/27 06:03:31;;;;;;;2.13;1.50;;;21.40;99.90;;;;;;5016482;28;20025;-36
2022/06/27 06:05:57;;;;;;;1.45;1.35;;;21.50;99.90;;;;;;5015638;28;20033;-37
2022/06/27 06:08:25;;;;;;;2.83;1.60;;;21.70;99.90;;;;;;5016531;28;20553;-36
2022/06/27 06:10:51;;;;;;;1.33;1.23;;;21.90;99.90;;;;;;5012491;28;20088;-39
2022/06/27 06:13:17;;;;;;;1.33;1.27;;;22.00;99.90;;;;;;5012929;28;20038;-36
2022/06/27 06:15:43;;;;;;;1.52;1.42;;;22.20;99.90;;;;;;5015485;28;20037;-35
2022/06/27 06:18:08;;;;;;;1.23;1.15;;;22.30;99.90;;;;;;5009349;28;20018;-39
2022/06/27 06:20:35;;;;;;;1.20;1.20;;;22.40;99.50;;;;;;5005155;28;20940;-37
2022/06/27 06:23:00;;;;;;;1.88;1.38;;;22.10;98.80;;;;;;5011383;28;20477;-39
2022/06/27 06:25:27;;;;;;;1.40;1.30;;;22.10;98.50;;;;;;5013747;28;20037;-39
2022/06/27 06:27:56;;;;;;;2.47;1.60;;;22.20;99.90;;;;;;5013176;28;20111;-35
2022/06/27 06:30:22;;;;;;;2.90;1.30;;;22.30;99.70;;;;;;5013970;28;20581;-39
2022/06/27 06:32:49;;;;;;;1.20;1.20;;;22.30;99.90;;;;;;5012886;28;20053;-39
2022/06/27 06:35:15;;;;;;;2.17;1.50;;;22.70;99.90;;;;;;5010713;28;20026;-37
2022/06/27 06:37:41;;;;;;;2.13;1.63;;;23.00;96.10;;;;;;5013908;28;20026;-37
2022/06/27 06:40:08;;;;;;;1.48;1.38;;;22.80;96.00;;;;;;5021694;28;20423;-37
2022/06/27 06:42:35;;;;;;;1.92;1.27;;;23.00;95.30;;;;;;5010623;28;20038;-38
2022/06/27 06:45:02;;;;;;;1.65;1.55;;;23.10;95.70;;;;;;5012787;28;20573;-39
2022/06/27 06:47:27;;;;;;;1.40;1.30;;;23.20;97.70;;;;;;5013442;28;20499;-38
2022/06/27 06:49:54;;;;;;;1.63;1.52;;;22.70;96.50;;;;;;5013088;28;20034;-39
2022/06/27 06:52:20;;;;;;;1.92;1.45;;;22.60;97.70;;;;;;5013425;28;20041;-36
2022/06/27 06:54:46;;;;;;;1.42;1.40;;;22.50;96.90;;;;;;5012657;28;20054;-39
2022/06/27 06:57:13;;;;;;;1.45;1.35;;;22.60;97.80;;;;;;5013167;28;20034;-38
2022/06/27 06:59:39;;;;;;;1.38;1.38;;;22.80;97.00;;;;;;5014321;28;20041;-39
2022/06/27 07:02:05;;;;;;;1.33;1.30;;;22.90;96.90;;;;;;5011497;28;20034;-39
2022/06/27 07:04:31;;;;;;;1.50;1.40;;;23.20;97.30;;;;;;5012973;28;20022;-37
2022/06/27 07:06:58;;;;;;;1.52;1.42;;;23.00;95.90;;;;;;5013042;28;20091;-36
2022/06/27 07:09:25;;;;;;;1.63;1.53;;;22.70;97.00;;;;;;5013422;28;20034;-37
2022/06/27 07:11:51;;;;;;;1.52;1.30;;;23.30;96.90;;;;;;5012894;28;20064;-37
2022/06/27 07:14:17;;;;;;;1.35;1.35;;;23.60;95.80;;;;;;5012395;28;20076;-38
2022/06/27 07:16:46;;;;;;;1.67;1.58;;;23.70;94.90;;;;;;5011639;28;20061;-39
2022/06/27 07:19:13;;;;;;;1.52;1.42;;;23.80;95.20;;;;;;5014923;28;20471;-38
2022/06/27 07:21:39;;;;;;;1.35;1.35;;;24.30;93.40;;;;;;5011618;28;20042;-36
2022/06/27 07:24:08;;;;;;;1.63;1.52;;;23.90;92.40;;;;;;5017405;28;20084;-39
2022/06/27 07:26:35;;;;;;;1.70;1.55;;;24.10;92.30;;;;;;5016819;28;20490;-39
2022/06/27 07:29:03;;;;;;;1.58;1.40;;;24.30;92.90;;;;;;5015843;28;20030;-38
2022/06/27 07:31:29;;;;;;;1.60;1.50;;;24.60;90.30;;;;;;5016127;28;20037;-38
2022/06/27 07:33:56;;;;;;;1.50;1.40;;;24.70;89.40;;;;;;5008859;28;20434;-39
2022/06/27 07:36:25;;;;;;;1.65;1.55;;;24.50;90.30;;;;;;5015016;28;20029;-37
2022/06/27 07:38:52;;;;;;;1.52;1.48;;;24.60;91.20;;;;;;5015775;28;20057;-38
2022/06/27 07:41:22;;;;;;;1.25;1.23;;;25.00;88.80;;;;;;5010250;28;20038;-39
2022/06/27 07:43:48;;;;;;;2.63;1.50;;;25.10;91.00;;;;;;5014072;28;20025;-39
2022/06/27 07:46:17;;;;;;;2.00;1.85;;;25.10;91.40;;;;;;5012649;28;20036;-36
2022/06/27 07:48:44;;;;;;;2.30;1.40;;;25.00;91.70;;;;;;5014010;28;20030;-39
2022/06/27 07:51:16;;;;;;;2.88;1.77;;;24.80;90.90;;;;;;5010108;28;20391;-39
2022/06/27 07:53:46;;;;;;;1.40;1.30;;;25.00;86.20;;;;;;5015432;28;20476;-39
2022/06/27 07:56:15;;;;;;;1.90;1.80;;;24.50;90.10;;;;;;5008914;28;20109;-36
2022/06/27 07:58:40;;;;;;;1.60;1.50;;;25.10;90.30;;;;;;5013917;28;20117;-39
2022/06/27 08:01:08;;;;;;;2.53;1.65;;;25.70;84.30;;;;;;5012251;28;20145;-40
2022/06/27 08:03:44;;;;;;;3.63;1.50;;;25.20;79.20;;;;;;5014497;28;20030;-39
2022/06/27 08:06:25;;;;;;;1.88;1.77;;;25.20;86.80;;;;;;5013116;28;20025;-36
2022/06/27 08:08:52;;;;;;;1.75;1.65;;;25.50;83.00;;;;;;5014607;28;20368;-39
2022/06/27 08:11:22;;;;;;;2.95;1.70;;;25.40;83.30;;;;;;5014959;28;20064;-37
2022/06/27 08:13:49;;;;;;;2.47;1.80;;;25.20;88.90;;;;;;5013893;28;20518;-37
2022/06/27 08:16:15;;;;;;;1.42;1.33;;;25.30;88.00;;;;;;5009196;28;20497;-36
2022/06/27 08:18:46;;;;;;;1.60;1.50;;;25.90;83.20;;;;;;5013163;28;20030;-39
2022/06/27 08:21:14;;;;;;;2.55;1.73;;;26.30;78.50;;;;;;5016201;28;20028;-37
2022/06/27 08:23:40;;;;;;;3.60;1.58;;;26.60;79.90;;;;;;5017285;28;20029;-39
2022/06/27 08:26:08;;;;;;;1.60;1.50;;;26.70;70.70;;;;;;5020021;28;20552;-37
2022/06/27 08:28:39;;;;;;;1.65;1.55;;;26.80;73.70;;;;;;5011275;28;20029;-36
2022/06/27 08:31:07;;;;;;;1.42;1.33;;;25.90;70.00;;;;;;5020454;28;20044;-38
2022/06/27 08:33:33;;;;;;;2.55;1.67;;;26.20;73.20;;;;;;5023097;28;20033;-38
2022/06/27 08:36:01;;;;;;;1.45;1.35;;;26.70;79.50;;;;;;5017933;28;20558;-39
2022/06/27 08:38:28;;;;;;;1.55;1.50;;;26.80;78.90;;;;;;5014552;28;20491;-37
2022/06/27 08:40:55;;;;;;;1.52;1.42;;;26.60;74.90;;;;;;5013207;28;20037;-38
2022/06/27 08:43:21;;;;;;;1.90;1.60;;;26.20;74.70;;;;;;5013371;28;20045;-38
2022/06/27 08:45:47;;;;;;;1.63;1.52;;;26.60;76.80;;;;;;5019994;28;20115;-39
2022/06/27 08:48:14;;;;;;;3.88;1.50;;;26.90;74.70;;;;;;5014251;28;20037;-39
2022/06/27 08:50:41;;;;;;;1.80;1.70;;;27.40;72.70;;;;;;5015903;28;20061;-37
2022/06/27 08:53:08;;;;;;;1.85;1.45;;;27.30;64.80;;;;;;5013795;28;20034;-39
2022/06/27 08:55:34;;;;;;;;;;;27.30;64.30;;;;;;5018161;28;20025;-38
2022/06/27 08:58:10;;;;;;;2.45;1.52;;;26.80;69.20;;;;;;5014497;28;19917;-39
2022/06/27 09:00:41;;;;;;;2.58;1.60;;;27.00;67.90;;;;;;5024890;28;20033;-39
2022/06/27 09:03:07;;;;;;;1.27;1.17;;;26.80;70.70;;;;;;5032061;28;20025;-35
2022/06/27 09:05:36;;;;;;;1.47;1.37;;;26.90;66.60;;;;;;5013514;28;20049;-38
2022/06/27 09:08:06;;;;;;;1.20;1.20;;;26.90;65.60;;;;;;5007802;28;20045;-39
2022/06/27 09:10:36;;;;;;;1.50;1.50;;;26.80;64.40;;;;;;5015800;28;20459;-39
2022/06/27 09:13:08;;;;;;;1.35;1.20;;;27.20;65.20;;;;;;5017464;28;20037;-39
2022/06/27 09:15:46;;;;;;;1.70;1.60;;;27.40;65.30;;;;;;5017638;28;20491;-37
2022/06/27 09:18:14;;;;;;;1.60;1.50;;;27.60;65.60;;;;;;5016277;28;20036;-39
2022/06/27 09:20:49;;;;;;;1.33;1.30;;;27.60;68.20;;;;;;5015263;28;20117;-35
2022/06/27 09:23:54;;;;;;;1.52;1.42;;;27.80;66.80;;;;;;5015749;28;20044;-36
2022/06/27 09:26:21;;;;;;;2.20;1.58;;;27.60;65.70;;;;;;5011794;28;20040;-39
2022/06/27 09:29:00;;;;;;;1.43;1.33;;;27.60;65.80;;;;;;5013940;28;20091;-39
2022/06/27 09:31:30;;;;;;;1.38;1.27;;;27.60;64.20;;;;;;5012209;28;20120;-39
2022/06/27 09:34:09;;;;;;;1.35;1.25;;;28.10;64.60;;;;;;5016690;28;20061;-37
2022/06/27 09:36:37;;;;;;;1.42;1.33;;;28.40;61.40;;;;;;5020467;28;20479;-36
2022/06/27 09:39:04;;;;;;;1.50;1.40;;;28.20;65.80;;;;;;5019011;28;20058;-39
2022/06/27 09:41:31;;;;;;;1.60;1.50;;;27.80;67.80;;;;;;5017454;28;20057;-38
2022/06/27 09:44:03;;;;;;;1.40;1.40;;;27.70;70.70;;;;;;5014889;28;20559;-39
2022/06/27 09:46:35;;;;;;;1.60;1.50;;;27.80;67.10;;;;;;5016037;28;20026;-36
2022/06/27 09:49:03;;;;;;;1.35;1.25;;;28.10;67.60;;;;;;5018168;28;20032;-39
2022/06/27 09:51:35;;;;;;;1.38;1.33;;;28.50;63.70;;;;;;5015940;28;20029;-37
2022/06/27 09:54:10;;;;;;;1.63;1.52;;;28.50;61.60;;;;;;5020367;28;20028;-38
2022/06/27 09:56:39;;;;;;;1.50;1.40;;;28.90;62.90;;;;;;5019664;28;20127;-36
2022/06/27 09:59:08;;;;;;;1.90;1.50;;;29.20;62.60;;;;;;5017592;28;20090;-36
2022/06/27 10:01:35;;;;;;;1.55;1.45;;;29.10;59.00;;;;;;5020885;28;20561;-35
2022/06/27 10:04:02;;;;;;;;;;;29.00;57.60;;;;;;5022116;28;20022;-36
2022/06/27 10:06:29;;;;;;;1.52;1.42;;;28.10;66.00;;;;;;5018818;28;19952;-36
2022/06/27 10:08:55;;;;;;;1.70;1.60;;;28.30;66.30;;;;;;5016581;28;20034;-36
2022/06/27 10:11:21;;;;;;;1.02;1.00;;;28.40;73.10;;;;;;5017819;28;20072;-35
2022/06/27 10:14:23;;;;;;;2.00;1.20;;;28.90;64.50;;;;;;5015830;28;20620;-36
2022/06/27 10:16:58;;;;;;;1.17;1.10;;;29.30;65.60;;;;;;5033126;28;20108;-36
2022/06/27 10:19:28;;;;;;;1.15;1.13;;;29.20;62.30;;;;;;5016840;28;20116;-35
2022/06/27 10:21:55;;;;;;;1.23;1.00;;;29.00;62.20;;;;;;5020709;28;20052;-35
2022/06/27 10:24:21;;;;;;;;;;;28.80;61.50;;;;;;5017150;28;20069;-36
2022/06/27 10:26:53;;;;;;;1.20;1.10;;;28.60;61.60;;;;;;5008386;28;19913;-36
2022/06/27 10:29:33;;;;;;;1.00;1.00;;;28.10;62.50;;;;;;5031812;28;20068;-38
2022/06/27 10:32:01;;;;;;;3.17;1.20;;;28.10;71.10;;;;;;5016391;28;20466;-39
2022/06/27 10:34:39;;;;;;;0.88;0.57;;;27.80;63.80;;;;;;5014535;28;20061;-38
2022/06/27 10:37:25;;;;;;;1.08;0.98;;;27.60;66.60;;;;;;5010738;28;20056;-39
2022/06/27 10:39:53;;;;;;;2.07;0.90;;;27.70;68.80;;;;;;5013865;28;20049;-39
2022/06/27 10:42:51;;;;;;;1.15;0.98;;;27.80;66.20;;;;;;5009979;28;20100;-39
2022/06/27 10:45:20;;;;;;;0.98;0.80;;;27.60;68.20;;;;;;5011398;28;20034;-36
2022/06/27 10:47:46;;;;;;;1.10;1.10;;;27.20;68.10;;;;;;5016531;28;20049;-38
2022/06/27 10:50:14;;;;;;;1.17;1.08;;;27.30;68.40;;;;;;5029436;28;20153;-36
2022/06/27 10:52:39;;;;;;;;;;;27.30;72.70;;;;;;5010565;28;20060;-37
2022/06/27 10:55:25;;;;;;;0.80;0.80;;;27.30;68.40;;;;;;5020073;28;19913;-39
2022/06/27 10:57:53;;;;;;;0.77;0.77;;;27.20;69.70;;;;;;5016362;28;20018;-38
2022/06/27 11:00:36;;;;;;;0.90;0.90;;;27.30;67.60;;;;;;5008461;28;20030;-37
2022/06/27 11:03:03;;;;;;;1.13;1.00;;;27.40;69.00;;;;;;5015549;28;20026;-39
2022/06/27 11:05:30;;;;;;;1.15;0.90;;;27.40;70.40;;;;;;5014065;28;20022;-38
2022/06/27 11:07:56;;;;;;;1.35;0.90;;;27.40;68.50;;;;;;5015325;28;20049;-40
2022/06/27 11:10:22;;;;;;;1.27;0.85;;;27.30;66.90;;;;;;5016237;28;20065;-39
2022/06/27 11:12:47;;;;;;;0.77;0.77;;;27.00;63.90;;;;;;5013486;28;20026;-38
2022/06/27 11:15:13;;;;;;;0.73;0.73;;;26.90;66.60;;;;;;5016369;28;20024;-38
2022/06/27 11:17:44;;;;;;;0.93;0.90;;;26.90;66.80;;;;;;5015206;28;20034;-39
2022/06/27 11:20:26;;;;;;;1.10;0.90;;;26.80;65.30;;;;;;5014210;28;20033;-39
2022/06/27 11:22:57;;;;;;;1.17;1.02;;;26.90;68.00;;;;;;5011462;28;20022;-38
2022/06/27 11:25:23;;;;;;;1.30;1.00;;;26.90;68.10;;;;;;5015047;28;20475;-39
2022/06/27 11:33:34;;;;;;;2.15;1.17;;;27.00;70.30;;;;;;5018109;28;20037;-36
2022/06/27 11:36:01;;;;;;;1.52;1.00;;;27.30;74.10;;;;;;5011947;28;20387;-40
2022/06/27 11:38:40;;;;;;;1.42;1.25;;;27.40;73.90;;;;;;5019636;28;20022;-36
2022/06/27 11:41:13;;;;;;;1.23;1.23;;;27.30;80.40;;;;;;5025458;28;20098;-36
2022/06/27 11:43:51;;;;;;;1.50;1.40;;;27.10;75.20;;;;;;5016948;28;20053;-35
2022/06/27 11:46:46;;;;;;;2.13;1.45;;;26.80;74.70;;;;;;5018333;28;20030;-35
2022/06/27 11:49:18;;;;;;;3.15;1.35;;;26.40;78.60;;;;;;5033843;28;20376;-39
2022/06/27 11:51:49;;;;;;;2.25;1.20;;;26.30;83.40;;;;;;5019442;28;20034;-39
2022/06/27 11:54:18;;;;;;;1.20;1.10;;;26.60;90.60;;;;;;5019544;28;20487;-37
2022/06/27 11:56:48;;;;;;;3.97;1.20;;;26.40;79.30;;;;;;5017442;28;20038;-37
2022/06/27 11:59:17;;;;;;;2.17;1.30;;;26.40;81.20;;;;;;5018908;28;20029;-37
2022/06/27 12:01:53;;;;;;;3.50;1.20;;;26.40;81.50;;;;;;5005848;28;20044;-40
2022/06/27 12:04:21;;;;;;;1.75;1.20;;;26.40;84.80;;;;;;5015266;28;20109;-37
2022/06/27 12:06:54;;;;;;;2.38;1.05;;;26.40;82.40;;;;;;4999691;28;20064;-37
2022/06/27 12:09:22;;;;;;;1.83;1.10;;;26.30;80.60;;;;;;5018323;28;20067;-36
2022/06/27 12:12:07;;;;;;;1.23;1.13;;;26.30;89.60;;;;;;5019841;28;20057;-36
2022/06/27 12:14:44;;;;;;;1.65;1.20;;;26.30;82.70;;;;;;5017402;28;20075;-37
2022/06/27 12:17:10;;;;;;;1.65;1.10;;;26.30;82.10;;;;;;5033174;28;20025;-38
2022/06/27 12:19:36;;;;;;;1.27;1.20;;;26.10;80.50;;;;;;5033461;28;20463;-39
2022/06/27 12:22:02;;;;;;;1.50;1.20;;;25.90;78.60;;;;;;5016289;28;20033;-39
2022/06/27 12:24:30;;;;;;;1.88;1.20;;;25.60;78.20;;;;;;5020799;28;20160;-37
2022/06/27 12:26:56;;;;;;;;;;;25.60;81.80;;;;;;5020472;28;20414;-36
2022/06/27 12:29:22;;;;;;;1.38;1.10;;;25.70;83.50;;;;;;5019495;28;19909;-36
2022/06/27 12:31:48;;;;;;;1.92;1.40;;;25.60;82.50;;;;;;5019946;28;20038;-35
2022/06/27 12:34:14;;;;;;;1.08;1.02;;;25.70;84.50;;;;;;5029185;28;20436;-39
2022/06/27 12:36:41;;;;;;;1.65;1.10;;;25.90;85.50;;;;;;5015785;28;20113;-35
2022/06/27 12:39:08;;;;;;;1.20;1.10;;;25.80;82.40;;;;;;5023871;28;20792;-38
2022/06/27 12:41:38;;;;;;;1.23;1.20;;;25.70;85.00;;;;;;5017109;28;20120;-36
2022/06/27 12:44:05;;;;;;;1.50;1.30;;;25.70;82.80;;;;;;5018823;28;20034;-37
2022/06/27 12:46:31;;;;;;;3.42;1.25;;;25.70;85.70;;;;;;5017267;28;20369;-35
2022/06/27 12:48:57;;;;;;;2.22;1.30;;;25.50;83.50;;;;;;5018287;28;20399;-36
2022/06/27 12:51:25;;;;;;;1.77;1.08;;;25.20;83.90;;;;;;5019068;28;20026;-35
2022/06/27 12:53:52;;;;;;;4.35;1.20;;;25.00;83.20;;;;;;5020752;28;20075;-36
2022/06/27 12:56:19;;;;;;;1.45;1.30;;;24.90;88.50;;;;;;5003547;28;20557;-36
2022/06/27 12:58:45;;;;;;;1.00;1.00;;;24.90;88.10;;;;;;5022442;28;20038;-37
2022/06/27 13:01:11;;;;;;;4.13;1.60;;;24.90;89.50;;;;;;5022566;28;20030;-35